Impacts TAF Board INFO
FOR SITUATIONAL AWARENESS. NOT TO BE USED FOR FLIGHT PLANNING PURPOSES.
IDs:

KATL - Atlanta/Hartsfield-J, GA, US

Issued at 0735 UTC 21 Nov 2017
Updated at 0753 UTC 21 Nov 2017
Potential Impact None Slight Moderate High
Time0652Z 21/08Z 21/09Z 21/10Z 21/11Z 21/12Z 21/13Z 21/14Z 21/15Z 21/16Z 21/17Z 21/18Z 21/19Z 21/20Z>>
Type OBS PRVL PRVL PRVL
  [TEMP]  
PRVL
  [TEMP]  
PRVL
  [TEMP]  
PRVL
  [TEMP]  
PRVL PRVL PRVL PRVL PRVL PRVL PRVL
VIS 10 >6 >6 >6 >6 >6 >6 >6 >6 >6 >6 >6 >6 >6
CIG 42 35 35 30
  [10]  
30
  [10]  
30
  [10]  
30
  [10]  
30 30 30 35 35 35 35
Cover BKN BKN BKN OVC
  [BKN]  
OVC
  [BKN]  
OVC
  [BKN]  
OVC
  [BKN]  
OVC OVC OVC OVC OVC OVC OVC
FltCat VFR VFR VFR MVFR
  [MVFR]  
MVFR
  [MVFR]  
MVFR
  [MVFR]  
MVFR
  [MVFR]  
MVFR MVFR MVFR VFR VFR VFR VFR
WX -- -- -- --
  [--]  
--
  [--]  
--
  [--]  
--
  [--]  
-- -- -- -- -- -- --
WDir 80 90 90 100
[100]
100
[100]
100
[100]
100
[100]
100 100 100 110 110 110 110
WSpd 6 6 6 6
  [6]  
6
  [6]  
6
  [6]  
6
  [6]  
6 6 6 6 6 6 6
WGst -- -- -- --
  [--]  
--
  [--]  
--
  [--]  
--
  [--]  
-- -- -- -- -- -- --

Raw TAF
KATL 210735Z 2108/2212 09006KT P6SM SCT020 BKN035 BKN250
  FM211000 10006KT P6SM SCT010 OVC030
  TEMPO 2110/2114 BKN010
  FM211700 11006KT P6SM SCT010 OVC035
  FM220000 02005KT P6SM SCT009 OVC015
  FM220300 02005KT 3SM BR BKN008 OVC015
  FM220600 35006KT 3SM BR BKN008 OVC015


Raw METAR
KATL 210652Z 08006KT 10SM BKN042 BKN200 07/02 A3016 RMK AO2 SLP213 T00670022
KATL 210552Z 09005KT 10SM BKN038 BKN180 BKN250 06/03 A3017 RMK AO2 SLP219 T00610028 10111 20061 58003
KATL 210452Z 10004KT 10SM SCT038 BKN180 BKN250 07/02 A3018 RMK AO2 SLP222 T00670022 401560000

METAR Board
Radar Display
Forecast Discussion

FOR SITUATIONAL AWARENESS. NOT TO BE USED FOR FLIGHT PLANNING PURPOSES.